Time;durP1;ratioP1;P1;durP2;ratioP2;P2;SDS_P1;SDS_P2;PMS_P1;PMS_P2;Temp;Humidity;BMP_temperature;BMP_pressure;BME280_temperature;BME280_humidity;BME280_pressure;Samples;Min_cycle;Max_cycle;Signal;HPM_P1;HPM_P2
2022/10/24 00:01:27;;;;;;;12.10;8.48;;;;;;;12.31;100.00;100537.06;7398560;19;20078;-69
2022/10/24 00:03:56;;;;;;;21.60;9.02;;;;;;;12.33;100.00;100532.63;7397445;19;20035;-70
2022/10/24 00:06:25;;;;;;;19.20;10.70;;;;;;;12.30;100.00;100516.09;7399947;19;20018;-70
2022/10/24 00:08:54;;;;;;;15.07;9.18;;;;;;;12.34;100.00;100533.50;7399457;19;20428;-70
2022/10/24 00:11:24;;;;;;;17.90;9.15;;;;;;;12.34;100.00;100529.06;7398318;19;20014;-70
2022/10/24 00:13:58;;;;;;;19.90;10.00;;;;;;;12.36;100.00;100531.69;7400241;19;20027;-70
2022/10/24 00:16:27;;;;;;;14.38;9.50;;;;;;;12.37;100.00;100517.59;7399320;19;20021;-69
2022/10/24 00:18:56;;;;;;;15.23;8.93;;;;;;;12.36;100.00;100518.53;7396952;19;20007;-70
2022/10/24 00:21:25;;;;;;;12.15;8.48;;;;;;;12.37;100.00;100513.22;7398103;19;20010;-72
2022/10/24 00:23:53;;;;;;;16.83;8.88;;;;;;;12.38;100.00;100521.94;7408876;19;20027;-74
2022/10/24 00:26:22;;;;;;;14.38;8.45;;;;;;;12.38;100.00;100532.47;7399559;19;20031;-73
2022/10/24 00:28:50;;;;;;;14.75;8.68;;;;;;;12.37;100.00;100534.25;7398853;19;20019;-75
2022/10/24 00:31:22;;;;;;;14.50;7.63;;;;;;;12.39;100.00;100528.94;7398090;19;20110;-74
2022/10/24 00:33:50;;;;;;;12.82;7.57;;;;;;;12.38;100.00;100535.09;7399614;19;20014;-74
2022/10/24 00:36:22;;;;;;;13.57;8.00;;;;;;;12.37;100.00;100530.75;7399482;19;20018;-74
2022/10/24 00:38:51;;;;;;;17.02;8.05;;;;;;;12.38;100.00;100540.34;7398916;19;20484;-74
2022/10/24 00:41:24;;;;;;;14.30;7.10;;;;;;;12.37;100.00;100533.38;7397089;19;20018;-75
2022/10/24 00:44:13;;;;;;;11.95;7.38;;;;;;;12.36;100.00;100544.84;7398371;19;20022;-74
2022/10/24 00:46:48;;;;;;;8.02;6.25;;;;;;;12.34;100.00;100538.75;7396864;19;20023;-75
2022/10/24 00:49:19;;;;;;;12.18;6.20;;;;;;;12.33;100.00;100542.28;7398547;19;20421;-74
2022/10/24 00:51:51;;;;;;;10.73;6.07;;;;;;;12.32;100.00;100540.56;7396922;19;20018;-74
2022/10/24 00:54:20;;;;;;;9.15;5.80;;;;;;;12.30;100.00;100545.88;7398815;19;20018;-74
2022/10/24 00:57:08;;;;;;;9.40;5.93;;;;;;;12.29;100.00;100545.94;7397845;19;20409;-74
2022/10/24 00:59:40;;;;;;;7.82;5.07;;;;;;;12.29;100.00;100541.50;7398678;19;20425;-74
2022/10/24 01:02:11;;;;;;;11.80;5.47;;;;;;;12.27;100.00;100532.84;7396004;19;20363;-74
2022/10/24 01:04:40;;;;;;;6.28;4.97;;;;;;;12.27;100.00;100524.94;7397052;19;20019;-74
2022/10/24 01:07:19;;;;;;;10.15;5.38;;;;;;;12.28;100.00;100520.53;7395672;19;20018;-73
2022/10/24 01:10:09;;;;;;;6.80;5.60;;;;;;;12.28;100.00;100520.53;7396486;19;20031;-72
2022/10/24 01:12:46;;;;;;;9.13;5.18;;;;;;;12.27;100.00;100519.69;7397325;19;20022;-73
2022/10/24 01:15:21;;;;;;;6.60;4.45;;;;;;;12.28;100.00;100518.75;7397353;19;20035;-73
2022/10/24 01:17:59;;;;;;;8.07;5.28;;;;;;;12.31;100.00;100504.63;7398032;19;20389;-73
2022/10/24 01:20:44;;;;;;;6.65;5.25;;;;;;;12.32;100.00;100509.88;7397019;19;20011;-73
2022/10/24 01:23:34;;;;;;;5.90;4.95;;;;;;;12.33;100.00;100508.97;7397149;19;20010;-73
2022/10/24 01:26:23;;;;;;;6.22;5.10;;;;;;;12.33;100.00;100500.19;7397794;19;20023;-74
2022/10/24 01:29:03;;;;;;;8.95;5.35;;;;;;;12.35;100.00;100499.22;7396961;19;20463;-73
2022/10/24 01:31:42;;;;;;;7.85;5.28;;;;;;;12.37;100.00;100492.16;7396071;19;20031;-73
2022/10/24 01:34:27;;;;;;;8.70;4.85;;;;;;;12.37;100.00;100486.03;7397459;19;20018;-72
2022/10/24 01:37:03;;;;;;;8.10;5.55;;;;;;;12.37;100.00;100481.63;7396661;19;20015;-73
2022/10/24 01:39:39;;;;;;;9.35;5.20;;;;;;;12.38;100.00;100479.84;7394858;19;20018;-73
2022/10/24 01:42:09;;;;;;;10.23;5.32;;;;;;;12.37;100.00;100479.00;7394913;19;20480;-73
2022/10/24 01:44:41;;;;;;;7.10;4.85;;;;;;;12.37;100.00;100472.88;7395723;19;20090;-73
2022/10/24 01:47:17;;;;;;;9.63;5.20;;;;;;;12.36;100.00;100473.81;7396324;19;20015;-73
2022/10/24 01:49:51;;;;;;;8.70;4.70;;;;;;;12.35;100.00;100469.44;7396598;19;20026;-72
2022/10/24 01:52:21;;;;;;;9.60;5.35;;;;;;;12.34;100.00;100471.19;7395944;19;20019;-72
2022/10/24 01:54:50;;;;;;;8.73;4.63;;;;;;;12.33;100.00;100464.25;7398677;19;20379;-73
2022/10/24 01:57:19;;;;;;;7.47;4.68;;;;;;;12.33;100.00;100461.63;7396554;19;20039;-73
2022/10/24 01:59:49;;;;;;;7.90;4.80;;;;;;;12.31;100.00;100468.69;7394324;19;20494;-72
2022/10/24 02:02:25;;;;;;;7.15;5.30;;;;;;;12.31;100.00;100475.69;7394634;19;20023;-73
2022/10/24 02:05:00;;;;;;;6.45;4.60;;;;;;;12.30;100.00;100464.31;7395250;19;20018;-73
2022/10/24 02:07:31;;;;;;;7.97;4.70;;;;;;;12.29;100.00;100462.59;7395681;19;20485;-72
2022/10/24 02:10:07;;;;;;;10.90;6.68;;;;;;;12.27;100.00;100471.47;7395438;19;20070;-73
2022/10/24 02:12:40;;;;;;;13.13;8.15;;;;;;;12.26;100.00;100467.97;7396313;19;20022;-73
2022/10/24 02:15:16;;;;;;;6.85;4.82;;;;;;;12.26;100.00;100480.25;7396119;19;20031;-73
2022/10/24 02:17:47;;;;;;;6.70;4.65;;;;;;;12.24;100.00;100469.78;7399090;19;20018;-72
2022/10/24 02:20:16;;;;;;;7.95;4.38;;;;;;;12.22;100.00;100467.22;7395265;19;20018;-72
2022/10/24 02:22:51;;;;;;;7.45;4.20;;;;;;;12.24;100.00;100468.94;7397055;19;20015;-72
2022/10/24 02:25:25;;;;;;;8.57;4.53;;;;;;;12.22;100.00;100461.13;7394572;19;20022;-72
2022/10/24 02:27:58;;;;;;;7.30;4.32;;;;;;;12.21;100.00;100464.66;7395165;19;20022;-72
2022/10/24 02:30:28;;;;;;;14.38;5.45;;;;;;;12.19;100.00;100461.19;7395200;19;20018;-73
2022/10/24 02:33:01;;;;;;;6.63;4.28;;;;;;;12.19;100.00;100459.41;7394699;19;20015;-72
2022/10/24 02:35:32;;;;;;;5.95;4.80;;;;;;;12.18;100.00;100459.47;7394544;19;20022;-73
2022/10/24 02:38:06;;;;;;;6.13;4.72;;;;;;;12.19;100.00;100458.56;7395441;19;20022;-73
2022/10/24 02:40:35;;;;;;;5.53;4.10;;;;;;;12.18;100.00;100465.59;7394696;19;20043;-72
2022/10/24 02:43:07;;;;;;;6.68;4.32;;;;;;;12.18;100.00;100455.09;7394721;19;20010;-73
2022/10/24 02:45:37;;;;;;;8.70;4.80;;;;;;;12.18;100.00;100459.47;7393820;19;20481;-72
2022/10/24 02:48:13;;;;;;;6.25;4.25;;;;;;;12.17;100.00;100458.63;7395377;19;20023;-72
2022/10/24 02:50:43;;;;;;;7.80;4.43;;;;;;;12.16;100.00;100461.31;7394159;19;20383;-72
2022/10/24 02:53:14;;;;;;;6.05;4.65;;;;;;;12.14;100.00;100453.44;7394431;19;20010;-72
2022/10/24 02:55:43;;;;;;;7.57;4.38;;;;;;;12.14;100.00;100453.44;7394317;19;20501;-73
2022/10/24 02:58:11;;;;;;;8.18;4.90;;;;;;;12.14;100.00;100457.84;7394528;19;20035;-72
2022/10/24 03:00:40;;;;;;;5.38;4.57;;;;;;;12.12;100.00;100450.03;7393515;19;20494;-73
2022/10/24 03:03:11;;;;;;;7.90;4.30;;;;;;;12.13;100.00;100453.50;7394424;19;20028;-74
2022/10/24 03:05:39;;;;;;;11.88;6.00;;;;;;;12.11;100.00;100457.97;7393056;19;20018;-73
2022/10/24 03:08:08;;;;;;;7.03;5.20;;;;;;;12.09;100.00;100458.00;7394275;19;20035;-74
2022/10/24 03:10:36;;;;;;;6.53;4.57;;;;;;;12.08;100.00;100447.53;7393740;19;20014;-73
2022/10/24 03:13:05;;;;;;;7.05;4.47;;;;;;;12.07;100.00;100446.69;7394210;19;20031;-73
2022/10/24 03:15:34;;;;;;;8.38;5.70;;;;;;;12.06;100.00;100450.22;7394231;19;20014;-73
2022/10/24 03:18:02;;;;;;;9.90;6.35;;;;;;;12.05;100.00;100449.34;7393701;19;20498;-73
2022/10/24 03:20:33;;;;;;;10.43;7.05;;;;;;;12.04;100.00;100441.50;7392566;19;20014;-73
2022/10/24 03:23:02;;;;;;;7.43;5.05;;;;;;;12.03;100.00;100445.94;7393588;19;20036;-73
2022/10/24 03:25:30;;;;;;;8.95;6.10;;;;;;;12.03;100.00;100447.69;7392352;19;20035;-73
2022/10/24 03:27:59;;;;;;;11.07;6.97;;;;;;;12.02;100.00;100448.63;7393704;19;20014;-74
2022/10/24 03:30:27;;;;;;;12.57;7.07;;;;;;;12.01;100.00;100437.22;7393238;19;20039;-73
2022/10/24 03:32:56;;;;;;;11.10;6.95;;;;;;;12.00;100.00;100435.50;7398584;19;20027;-73
2022/10/24 03:35:24;;;;;;;11.63;6.22;;;;;;;11.98;100.00;100439.97;7400825;19;20022;-72
2022/10/24 03:37:55;;;;;;;8.10;6.43;;;;;;;11.97;100.00;100445.28;7400137;19;20501;-72
2022/10/24 03:40:24;;;;;;;10.43;5.90;;;;;;;11.96;100.00;100460.16;7400500;19;20023;-73
2022/10/24 03:42:52;;;;;;;10.30;8.13;;;;;;;11.94;100.00;100466.34;7400301;19;20078;-73
2022/10/24 03:45:27;;;;;;;8.70;5.82;;;;;;;11.91;100.00;100464.69;7399060;19;20495;-73
2022/10/24 03:47:55;;;;;;;7.07;5.22;;;;;;;11.90;100.00;100460.31;7400584;19;20082;-72
2022/10/24 03:50:24;;;;;;;9.50;5.80;;;;;;;11.87;100.00;100456.03;7397541;19;20540;-73
2022/10/24 03:52:55;;;;;;;11.80;5.85;;;;;;;11.79;100.00;100450.19;7399934;19;20087;-73
2022/10/24 03:55:24;;;;;;;7.68;5.13;;;;;;;11.79;100.00;100450.19;7400557;19;20014;-73
2022/10/24 03:57:52;;;;;;;7.50;5.53;;;;;;;11.77;100.00;100443.25;7399546;19;20082;-72
2022/10/24 04:00:21;;;;;;;10.13;6.53;;;;;;;11.76;100.00;100452.03;7399169;19;20082;-73
2022/10/24 04:02:50;;;;;;;8.88;5.30;;;;;;;11.73;100.00;100450.38;7399385;19;20480;-74
2022/10/24 04:05:19;;;;;;;10.60;5.53;;;;;;;11.71;100.00;100449.53;7398464;19;20041;-73
2022/10/24 04:07:48;;;;;;;9.30;5.13;;;;;;;11.69;100.00;100448.72;7399512;19;20066;-73
2022/10/24 04:10:19;;;;;;;9.30;5.07;;;;;;;11.70;100.00;100453.06;7398813;19;20560;-74
2022/10/24 04:12:54;;;;;;;7.88;5.15;;;;;;;11.70;100.00;100458.31;7399990;19;20359;-73
2022/10/24 04:15:23;;;;;;;7.22;4.93;;;;;;;11.71;100.00;100455.69;7400111;19;20015;-73
2022/10/24 04:17:51;;;;;;;8.70;5.40;;;;;;;11.71;100.00;100449.53;7399381;19;20031;-72
2022/10/24 04:20:21;;;;;;;9.35;5.25;;;;;;;11.72;100.00;100449.47;7398296;19;20066;-71
2022/10/24 04:22:51;;;;;;;11.55;5.35;;;;;;;11.72;100.00;100453.91;7399246;19;20029;-73
2022/10/24 04:25:22;;;;;;;8.60;5.10;;;;;;;11.72;100.00;100456.53;7397968;19;20031;-73
2022/10/24 04:27:50;;;;;;;8.20;4.57;;;;;;;11.68;100.00;100452.28;7398198;19;20435;-73
2022/10/24 04:30:19;;;;;;;8.43;5.75;;;;;;;11.71;100.00;100465.31;7396938;19;20022;-73
2022/10/24 04:32:47;;;;;;;7.05;4.72;;;;;;;11.71;100.00;100475.81;7398351;19;20026;-73
2022/10/24 04:35:16;;;;;;;8.85;5.55;;;;;;;11.70;100.00;100474.97;7398739;19;20078;-73
2022/10/24 04:37:44;;;;;;;10.10;5.25;;;;;;;11.71;100.00;100475.81;7395891;19;20043;-70
2022/10/24 04:40:13;;;;;;;9.10;5.35;;;;;;;11.69;100.00;100485.50;7398401;19;20463;-73
2022/10/24 04:42:44;;;;;;;9.82;5.03;;;;;;;11.67;100.00;100485.56;7395955;19;20549;-73
2022/10/24 04:45:13;;;;;;;8.73;5.20;;;;;;;11.67;100.00;100489.97;7396051;19;20011;-74
2022/10/24 04:47:42;;;;;;;8.93;4.88;;;;;;;11.65;100.00;100499.66;7397112;19;20030;-73
2022/10/24 04:50:11;;;;;;;11.60;5.88;;;;;;;11.63;100.00;100502.34;7395955;19;20022;-72
2022/10/24 04:52:40;;;;;;;10.23;5.80;;;;;;;11.61;100.00;100498.88;7395917;19;20038;-75
2022/10/24 04:55:09;;;;;;;10.35;5.22;;;;;;;11.61;100.00;100501.50;7397649;19;20035;-73
2022/10/24 04:57:38;;;;;;;6.88;5.70;;;;;;;11.61;100.00;100504.13;7395480;19;20358;-74
2022/10/24 05:00:10;;;;;;;11.70;5.68;;;;;;;11.60;100.00;100499.81;7395504;19;20010;-74
2022/10/24 05:02:39;;;;;;;11.73;6.00;;;;;;;11.61;100.00;100493.63;7395892;19;20086;-73
2022/10/24 05:05:08;;;;;;;8.55;5.53;;;;;;;11.62;100.00;100491.88;7395353;19;20501;-73
2022/10/24 05:07:37;;;;;;;10.85;5.32;;;;;;;11.62;100.00;100487.47;7397956;19;20396;-73
2022/10/24 05:10:05;;;;;;;12.50;5.30;;;;;;;11.63;100.00;100483.94;7396727;19;20077;-72
2022/10/24 05:12:34;;;;;;;9.68;6.07;;;;;;;11.63;100.00;100477.84;7397080;19;20027;-74
2022/10/24 05:15:02;;;;;;;9.05;5.05;;;;;;;11.63;100.00;100483.94;7396889;19;20407;-73
2022/10/24 05:17:33;;;;;;;12.30;5.43;;;;;;;11.63;100.00;100478.69;7397435;19;20082;-73
2022/10/24 05:20:02;;;;;;;11.75;5.60;;;;;;;11.65;100.00;100473.38;7396711;19;20018;-72
2022/10/24 05:22:31;;;;;;;10.55;5.82;;;;;;;11.65;100.00;100470.75;7395095;19;20014;-72
2022/10/24 05:24:59;;;;;;;8.57;5.68;;;;;;;11.64;100.00;100462.03;7395888;19;20425;-72
2022/10/24 05:27:28;;;;;;;10.60;5.30;;;;;;;11.65;100.00;100462.88;7397557;19;20019;-72
2022/10/24 05:29:56;;;;;;;9.70;5.30;;;;;;;11.65;100.00;100468.13;7396976;19;20073;-72
2022/10/24 05:32:25;;;;;;;11.77;5.50;;;;;;;11.65;100.00;100465.50;7397287;19;20019;-73
2022/10/24 05:34:57;;;;;;;8.23;5.10;;;;;;;11.66;100.00;100475.09;7396732;19;20383;-73
2022/10/24 05:37:25;;;;;;;8.80;5.68;;;;;;;11.66;100.00;100472.47;7396637;19;20374;-75
2022/10/24 05:39:53;;;;;;;12.57;5.82;;;;;;;11.67;100.00;100463.69;7396293;19;20436;-72
2022/10/24 05:42:22;;;;;;;14.07;5.72;;;;;;;11.68;100.00;100462.78;7394865;19;20027;-73
2022/10/24 05:44:50;;;;;;;8.15;6.13;;;;;;;11.67;100.00;100454.03;7396134;19;20101;-73
2022/10/24 05:47:19;;;;;;;10.18;5.72;;;;;;;11.68;100.00;100449.66;7396475;19;20036;-73
2022/10/24 05:49:47;;;;;;;9.45;5.47;;;;;;;11.68;100.00;100447.88;7396091;19;20552;-73
2022/10/24 05:52:18;;;;;;;12.75;5.68;;;;;;;11.69;100.00;100443.47;7394357;19;20022;-73
2022/10/24 05:54:47;;;;;;;11.30;5.82;;;;;;;11.71;100.00;100446.91;7395629;19;20086;-72
2022/10/24 05:57:15;;;;;;;14.93;5.38;;;;;;;11.72;100.00;100446.00;7395994;19;20081;-73
2022/10/24 05:59:44;;;;;;;9.30;5.22;;;;;;;11.74;100.00;100444.22;7396041;19;20543;-73
2022/10/24 06:02:19;;;;;;;6.80;5.32;;;;;;;11.74;100.00;100442.44;7394631;19;20074;-73
2022/10/24 06:04:49;;;;;;;13.75;5.70;;;;;;;11.77;100.00;100457.25;7395433;19;20086;-74
2022/10/24 06:07:20;;;;;;;11.32;5.28;;;;;;;11.76;100.00;100466.03;7397061;19;20026;-75
2022/10/24 06:09:49;;;;;;;9.57;5.75;;;;;;;11.77;100.00;100465.13;7395477;19;20070;-73
2022/10/24 06:12:17;;;;;;;11.10;5.43;;;;;;;11.79;100.00;100468.56;7393545;19;20027;-72
2022/10/24 06:14:46;;;;;;;10.75;5.43;;;;;;;11.80;100.00;100469.41;7395419;19;20032;-74
2022/10/24 06:17:14;;;;;;;11.15;5.03;;;;;;;11.81;100.00;100472.00;7395387;19;20018;-73
2022/10/24 06:19:43;;;;;;;12.20;5.28;;;;;;;11.82;100.00;100484.22;7395401;19;20072;-73
2022/10/24 06:22:12;;;;;;;7.88;5.07;;;;;;;11.85;100.00;100478.91;7392900;19;20020;-73
2022/10/24 06:24:43;;;;;;;10.85;5.00;;;;;;;11.88;100.00;100473.53;7394517;19;20078;-73
2022/10/24 06:27:11;;;;;;;14.60;5.70;;;;;;;11.92;100.00;100483.94;7394282;19;20063;-73
2022/10/24 06:29:40;;;;;;;12.38;5.18;;;;;;;11.96;100.00;100491.72;7394362;19;20350;-73
2022/10/24 06:32:08;;;;;;;9.77;4.70;;;;;;;12.00;100.00;100492.50;7394091;19;20022;-73
2022/10/24 06:34:37;;;;;;;11.82;4.70;;;;;;;12.04;100.00;100494.09;7399894;19;20035;-73
2022/10/24 06:37:06;;;;;;;11.40;5.07;;;;;;;12.08;100.00;100495.75;7394227;19;20083;-73
2022/10/24 06:39:34;;;;;;;5.47;4.45;;;;;;;12.12;100.00;100492.09;7394854;19;20036;-73
2022/10/24 06:42:05;;;;;;;9.60;4.82;;;;;;;12.16;100.00;100480.56;7392985;19;20108;-73
2022/10/24 06:44:34;;;;;;;8.32;4.03;;;;;;;12.20;100.00;100487.44;7394410;19;20070;-74
2022/10/24 06:47:02;;;;;;;12.70;5.80;;;;;;;12.26;100.00;100490.78;7392964;19;20074;-73
2022/10/24 06:49:31;;;;;;;9.40;4.70;;;;;;;12.30;100.00;100490.63;7394727;19;20041;-73
2022/10/24 06:51:59;;;;;;;13.10;3.97;;;;;;;12.36;100.00;100492.22;7392591;19;20035;-74
2022/10/24 06:54:28;;;;;;;16.10;5.32;;;;;;;12.42;100.00;100491.97;7394597;19;20010;-74
2022/10/24 06:56:57;;;;;;;7.35;3.90;;;;;;;12.49;100.00;100496.13;7392531;19;20041;-74
2022/10/24 06:59:28;;;;;;;10.98;4.22;;;;;;;12.54;100.00;100498.63;7394343;19;20078;-72
2022/10/24 07:01:57;;;;;;;9.93;3.90;;;;;;;12.56;100.00;100496.78;7392339;19;20019;-72
2022/10/24 07:04:26;;;;;;;7.70;4.43;;;;;;;12.65;100.00;100509.66;7393237;19;20377;-73
2022/10/24 07:06:55;;;;;;;8.02;3.78;;;;;;;12.69;100.00;100498.09;7393715;19;20015;-72
2022/10/24 07:09:23;;;;;;;8.25;3.65;;;;;;;12.74;100.00;100497.94;7400918;19;20031;-72
2022/10/24 07:11:52;;;;;;;10.85;3.90;;;;;;;12.80;100.00;100504.75;7399599;19;20032;-73
2022/10/24 07:14:21;;;;;;;6.93;3.75;;;;;;;12.84;100.00;100506.38;7398822;19;20014;-73
2022/10/24 07:16:52;;;;;;;8.25;3.58;;;;;;;12.89;100.00;100509.72;7403478;19;20015;-72
2022/10/24 07:19:20;;;;;;;8.40;3.92;;;;;;;12.94;100.00;100509.53;7401868;19;20039;-73
2022/10/24 07:21:49;;;;;;;8.50;3.53;;;;;;;12.99;100.00;100504.97;7398653;19;20010;-73
2022/10/24 07:24:18;;;;;;;10.38;4.45;;;;;;;13.04;100.00;100521.47;7400818;19;20378;-73
2022/10/24 07:26:47;;;;;;;10.75;4.47;;;;;;;13.11;100.00;100519.47;7399769;19;20081;-73
2022/10/24 07:29:15;;;;;;;9.05;4.05;;;;;;;13.15;100.00;100524.56;7401257;19;20035;-73
2022/10/24 07:31:44;;;;;;;10.70;4.05;;;;;;;13.22;100.00;100521.72;7398997;19;20376;-73
2022/10/24 07:34:15;;;;;;;9.05;3.50;;;;;;;13.28;100.00;100524.13;7401103;19;20022;-74
2022/10/24 07:36:44;;;;;;;9.25;3.10;;;;;;;13.34;100.00;100521.28;7399763;19;20014;-73
2022/10/24 07:39:13;;;;;;;8.15;3.75;;;;;;;13.39;100.00;100508.81;7400941;19;20039;-74
2022/10/24 07:41:43;;;;;;;14.27;4.38;;;;;;;13.46;100.00;100510.31;7398081;19;20018;-73
2022/10/24 07:44:12;;;;;;;13.95;4.35;;;;;;;13.52;100.00;100512.72;7398250;19;20035;-74
2022/10/24 07:46:43;;;;;;;6.88;3.40;;;;;;;13.59;100.00;100515.13;7399836;19;20006;-73
2022/10/24 07:49:15;;;;;;;11.70;3.90;;;;;;;13.65;99.90;100520.16;7402217;19;20469;-73
2022/10/24 07:51:43;;;;;;;13.10;3.83;;;;;;;13.68;99.71;100509.50;7398175;19;20044;-72
2022/10/24 07:54:12;;;;;;;10.13;3.60;;;;;;;13.76;99.27;100507.44;7400755;19;20039;-72
2022/10/24 07:56:40;;;;;;;9.65;3.75;;;;;;;13.81;98.97;100509.88;7397313;19;20010;-72
2022/10/24 07:59:09;;;;;;;9.25;3.78;;;;;;;13.87;98.33;100522.81;7399185;19;20485;-72
2022/10/24 08:01:38;;;;;;;15.00;3.42;;;;;;;13.93;98.53;100525.22;7398136;19;20418;-73
2022/10/24 08:04:06;;;;;;;8.77;3.78;;;;;;;13.98;98.21;100528.53;7400105;19;20011;-73
2022/10/24 08:06:39;;;;;;;5.38;3.58;;;;;;;14.04;98.12;100531.84;7397822;19;20032;-72
2022/10/24 08:09:08;;;;;;;6.60;3.20;;;;;;;14.10;98.25;100535.13;7400202;19;20014;-73
2022/10/24 08:11:37;;;;;;;7.70;3.05;;;;;;;14.15;97.95;100535.78;7397715;19;20160;-73
2022/10/24 08:14:05;;;;;;;8.20;3.15;;;;;;;14.21;97.67;100536.47;7396957;19;20027;-73
2022/10/24 08:16:33;;;;;;;9.35;2.97;;;;;;;14.24;97.49;100523.13;7398948;19;20391;-73
2022/10/24 08:19:09;;;;;;;6.32;2.67;;;;;;;14.28;97.12;100514.16;7397447;19;20039;-73
2022/10/24 08:21:40;;;;;;;9.13;3.10;;;;;;;14.31;96.89;100509.63;7397014;19;20011;-71
2022/10/24 08:24:09;;;;;;;6.15;2.80;;;;;;;14.36;97.07;100522.66;7398608;19;20552;-71
2022/10/24 08:26:40;;;;;;;12.68;4.38;;;;;;;14.40;96.71;100512.81;7396234;19;20439;-72
2022/10/24 08:29:10;;;;;;;8.98;2.85;;;;;;;14.44;96.89;100519.69;7399503;19;20018;-73
2022/10/24 08:31:40;;;;;;;6.28;2.88;;;;;;;14.45;96.37;100509.06;7397421;19;20018;-72
2022/10/24 08:34:08;;;;;;;10.05;3.63;;;;;;;14.52;96.44;100509.69;7398175;19;20014;-73
2022/10/24 08:36:40;;;;;;;11.35;3.63;;;;;;;14.55;96.03;100512.19;7398269;19;20488;-72
2022/10/24 08:39:08;;;;;;;9.73;2.78;;;;;;;14.59;96.00;100505.84;7398029;19;20484;-72
2022/10/24 08:41:40;;;;;;;11.65;3.28;;;;;;;14.64;95.76;100503.00;7395873;19;20477;-72
2022/10/24 08:44:20;;;;;;;8.30;3.40;;;;;;;14.70;95.46;100507.19;7397868;19;20027;-71
2022/10/24 08:46:56;;;;;;;8.30;2.70;;;;;;;14.74;95.75;100507.00;7396767;19;20019;-69
2022/10/24 08:49:31;;;;;;;7.38;3.20;;;;;;;14.79;95.43;100505.03;7398408;19;20018;-72
2022/10/24 08:52:07;;;;;;;10.52;3.15;;;;;;;14.86;95.18;100505.63;7396559;19;20022;-70
2022/10/24 08:54:38;;;;;;;7.95;3.25;;;;;;;14.90;94.79;100501.94;7398495;19;20035;-71
2022/10/24 08:57:08;;;;;;;7.28;2.63;;;;;;;14.94;94.93;100503.50;7398505;19;20038;-70
2022/10/24 08:59:39;;;;;;;8.43;2.58;;;;;;;14.99;94.60;100501.50;7395899;19;20018;-69
2022/10/24 09:02:17;;;;;;;8.75;3.13;;;;;;;15.06;94.39;100494.16;7395332;19;20023;-71
2022/10/24 09:04:51;;;;;;;9.60;2.58;;;;;;;15.11;94.51;100502.78;7397644;19;20379;-70
2022/10/24 09:07:24;;;;;;;7.97;2.47;;;;;;;15.19;94.02;100507.72;7396259;19;20484;-70
2022/10/24 09:09:59;;;;;;;8.90;2.45;;;;;;;15.25;93.63;100499.50;7397754;19;20018;-69
2022/10/24 09:12:28;;;;;;;5.03;2.55;;;;;;;15.32;93.23;100498.28;7396876;19;20015;-70
2022/10/24 09:15:00;;;;;;;7.53;2.80;;;;;;;15.37;93.22;100492.78;7395093;19;20019;-70
2022/10/24 09:17:33;;;;;;;11.52;3.10;;;;;;;15.45;92.68;100498.56;7394835;19;20345;-70
2022/10/24 09:20:08;;;;;;;7.55;2.30;;;;;;;15.52;92.32;100493.00;7397675;19;20035;-69
2022/10/24 09:22:39;;;;;;;10.07;2.45;;;;;;;15.57;91.38;100501.56;7394805;19;20027;-69
2022/10/24 09:25:13;;;;;;;5.82;2.28;;;;;;;15.62;91.47;100499.59;7397558;19;20035;-70
2022/10/24 09:27:43;;;;;;;7.20;2.30;;;;;;;15.68;91.18;100488.72;7396029;19;20380;-69
2022/10/24 09:30:19;;;;;;;8.45;2.60;;;;;;;15.72;91.19;100482.38;7395455;19;20014;-70
2022/10/24 09:32:48;;;;;;;7.60;2.60;;;;;;;15.77;90.67;100493.59;7397019;19;20031;-70
2022/10/24 09:35:20;;;;;;;7.30;2.60;;;;;;;15.82;90.31;100501.31;7396322;19;20018;-71
2022/10/24 09:38:00;;;;;;;7.85;2.20;;;;;;;15.87;89.77;100491.41;7397174;19;20010;-70
2022/10/24 09:40:31;;;;;;;7.82;2.25;;;;;;;15.91;89.38;100495.59;7396139;19;20031;-70
2022/10/24 09:43:02;;;;;;;11.75;3.17;;;;;;;15.98;89.31;100500.59;7396205;19;20010;-70
2022/10/24 09:45:40;;;;;;;6.72;2.30;;;;;;;16.00;88.06;100504.88;7396563;19;20049;-68
2022/10/24 09:48:21;;;;;;;6.95;1.80;;;;;;;16.05;88.76;100500.22;7394347;19;20376;-68
2022/10/24 09:50:51;;;;;;;7.15;2.75;;;;;;;16.08;88.68;100502.72;7394970;19;20032;-69
2022/10/24 09:53:29;;;;;;;10.32;2.00;;;;;;;16.16;88.60;100504.13;7396657;19;20027;-68
2022/10/24 09:56:02;;;;;;;10.98;2.63;;;;;;;16.17;88.46;100509.34;7396389;19;20018;-70
2022/10/24 09:58:34;;;;;;;11.02;2.13;;;;;;;16.22;88.11;100517.91;7395843;19;20037;-70
2022/10/24 10:01:06;;;;;;;6.63;2.20;;;;;;;16.26;87.72;100514.22;7395019;19;20034;-70
2022/10/24 10:03:36;;;;;;;7.88;2.25;;;;;;;16.30;87.78;100504.28;7395162;19;20019;-70
2022/10/24 10:06:16;;;;;;;10.50;2.50;;;;;;;16.32;87.30;100499.78;7395274;19;20014;-70
2022/10/24 10:08:51;;;;;;;7.63;2.45;;;;;;;16.37;87.15;100513.66;7398637;19;20494;-70
2022/10/24 10:11:29;;;;;;;8.85;2.38;;;;;;;16.39;86.02;100500.34;7394511;19;20014;-69
2022/10/24 10:14:00;;;;;;;8.27;2.20;;;;;;;16.41;86.98;100494.03;7395146;19;20033;-70
2022/10/24 10:16:32;;;;;;;8.32;2.30;;;;;;;16.48;86.40;100499.03;7395046;19;20488;-72
2022/10/24 10:19:05;;;;;;;6.07;2.25;;;;;;;16.52;86.12;100500.59;7396135;19;20082;-73
2022/10/24 10:21:56;;;;;;;6.60;2.25;;;;;;;16.56;85.53;100499.50;7393247;19;20027;-68
2022/10/24 10:24:39;;;;;;;9.23;2.60;;;;;;;16.58;85.35;100493.19;7395172;19;20090;-67
2022/10/24 10:27:29;;;;;;;7.65;2.45;;;;;;;16.64;84.61;100499.09;7392691;19;20011;-68
2022/10/24 10:30:20;;;;;;;6.70;2.55;;;;;;;16.67;84.91;100498.94;7392891;19;20010;-68
2022/10/24 10:32:59;;;;;;;12.98;2.78;;;;;;;16.69;84.72;100499.72;7394549;19;20022;-67
2022/10/24 10:35:35;;;;;;;6.75;1.92;;;;;;;16.73;85.10;100493.31;7392477;19;20022;-68
2022/10/24 10:38:18;;;;;;;9.57;1.98;;;;;;;16.76;84.78;100487.88;7393361;19;20018;-68
2022/10/24 10:40:55;;;;;;;5.18;1.80;;;;;;;16.80;84.24;100485.94;7394610;19;20042;-66
2022/10/24 10:43:33;;;;;;;13.73;2.67;;;;;;;16.83;84.09;100489.25;7401966;19;20078;-66
2022/10/24 10:46:14;;;;;;;5.70;2.08;;;;;;;16.87;84.14;100495.25;7402930;19;20018;-66
2022/10/24 10:48:56;;;;;;;7.57;2.03;;;;;;;16.90;83.68;100503.06;7399846;19;20028;-66
2022/10/24 10:51:37;;;;;;;5.63;1.90;;;;;;;16.91;83.52;100500.38;7400183;19;20035;-66
2022/10/24 10:54:19;;;;;;;15.95;1.90;;;;;;;16.93;83.11;100505.56;7398796;19;20033;-66
2022/10/24 10:56:54;;;;;;;4.45;1.58;;;;;;;16.94;82.45;100507.28;7402319;19;20035;-68
2022/10/24 10:59:51;;;;;;;7.00;1.85;;;;;;;16.96;82.14;100505.44;7401487;19;20035;-69
2022/10/24 11:02:37;;;;;;;7.07;1.73;;;;;;;16.95;82.16;100509.00;7398565;19;20370;-67
2022/10/24 11:05:21;;;;;;;7.72;2.33;;;;;;;16.96;83.02;100509.84;7401535;19;20036;-66
2022/10/24 11:07:57;;;;;;;7.95;2.13;;;;;;;16.95;82.47;100503.72;7398444;19;20478;-68
2022/10/24 11:10:31;;;;;;;8.02;2.17;;;;;;;16.96;82.02;100504.56;7401088;19;20400;-68
2022/10/24 11:13:07;;;;;;;8.20;2.00;;;;;;;16.95;81.89;100498.41;7400999;19;20027;-69
2022/10/24 11:15:41;;;;;;;7.65;1.60;;;;;;;16.97;82.26;100491.22;7398605;19;20019;-69
2022/10/24 11:18:13;;;;;;;;;;;;;;;16.96;81.41;100494.84;7401759;19;20037;-69
2022/10/24 11:21:05;;;;;;;4.68;1.85;;;;;;;16.97;81.36;100493.88;7402056;19;19911;-69
2022/10/24 11:23:39;;;;;;;7.30;1.85;;;;;;;16.97;82.26;100493.88;7396982;19;20552;-70
2022/10/24 11:26:11;;;;;;;8.82;2.20;;;;;;;16.96;81.59;100500.13;7397744;19;20022;-69
2022/10/24 11:28:51;;;;;;;7.15;1.83;;;;;;;16.94;80.50;100497.53;7398434;19;20031;-68
2022/10/24 11:31:24;;;;;;;4.53;2.00;;;;;;;16.94;81.46;100494.88;7398224;19;20082;-68
2022/10/24 11:34:02;;;;;;;8.10;2.22;;;;;;;16.94;81.32;100486.94;7397877;19;20017;-68
2022/10/24 11:36:37;;;;;;;7.18;2.00;;;;;;;16.94;81.43;100483.44;7397753;19;20454;-69
2022/10/24 11:39:12;;;;;;;6.68;2.15;;;;;;;16.93;81.18;100471.13;7400314;19;20484;-69